createdAt,value
2019-04-20T00:01:32.005Z,11.60
2019-04-20T00:03:50.722Z,11.70
2019-04-20T00:06:13.178Z,11.60
2019-04-20T00:08:36.495Z,11.60
2019-04-20T00:11:05.777Z,11.60
2019-04-20T00:13:33.171Z,11.50
2019-04-20T00:15:47.113Z,11.40
2019-04-20T00:18:09.910Z,11.30
2019-04-20T00:20:35.550Z,11.20
2019-04-20T00:23:19.768Z,11.20
2019-04-20T00:26:09.682Z,11.20
2019-04-20T00:28:35.187Z,11.10
2019-04-20T00:30:58.969Z,11.00
2019-04-20T00:33:21.684Z,10.90
2019-04-20T00:35:29.358Z,11.00
2019-04-20T00:37:50.809Z,10.90
2019-04-20T00:40:12.902Z,10.90
2019-04-20T00:42:43.297Z,10.80
2019-04-20T00:45:07.968Z,10.80
2019-04-20T00:47:34.607Z,10.70
2019-04-20T00:50:00.050Z,10.70
2019-04-20T00:54:30.553Z,10.70
2019-04-20T00:56:55.894Z,10.60
2019-04-20T00:59:27.605Z,10.50
2019-04-20T01:01:58.366Z,10.50
2019-04-20T01:04:19.832Z,10.50
2019-04-20T01:06:44.719Z,10.40
2019-04-20T01:08:55.052Z,10.30
2019-04-20T01:11:23.143Z,10.30
2019-04-20T01:13:47.510Z,10.30
2019-04-20T01:16:08.404Z,10.20
2019-04-20T01:18:26.535Z,10.10
2019-04-20T01:20:47.842Z,10.10
2019-04-20T01:23:13.911Z,10.10
2019-04-20T01:25:37.703Z,10.10
2019-04-20T01:28:18.318Z,10.10
2019-04-20T01:30:28.210Z,10.00
2019-04-20T01:32:55.090Z,10.00
2019-04-20T01:35:26.072Z,9.90
2019-04-20T01:37:41.000Z,9.90
2019-04-20T01:39:55.883Z,9.80
2019-04-20T01:42:15.321Z,9.80
2019-04-20T01:44:41.918Z,9.70
2019-04-20T01:47:02.947Z,9.60
2019-04-20T01:49:28.613Z,9.50
2019-04-20T01:52:00.150Z,9.50
2019-04-20T01:54:28.153Z,9.50
2019-04-20T01:56:47.601Z,9.50
2019-04-20T01:59:29.553Z,9.40
2019-04-20T02:01:42.817Z,9.40
2019-04-20T02:04:16.987Z,9.30
2019-04-20T02:06:40.561Z,9.50
2019-04-20T02:08:59.167Z,9.60
2019-04-20T02:11:25.045Z,9.70
2019-04-20T02:13:48.000Z,9.70
2019-04-20T02:16:14.032Z,9.60
2019-04-20T02:18:40.025Z,9.60
2019-04-20T02:21:12.143Z,9.60
2019-04-20T02:23:25.302Z,9.50
2019-04-20T02:25:37.581Z,9.40
2019-04-20T02:28:17.924Z,9.30
2019-04-20T02:30:55.721Z,9.30
2019-04-20T02:33:28.006Z,9.20
2019-04-20T02:35:54.415Z,9.10
2019-04-20T02:38:15.325Z,9.00
2019-04-20T02:40:39.275Z,9.00
2019-04-20T02:42:58.044Z,9.00
2019-04-20T02:45:24.141Z,8.90
2019-04-20T02:47:47.223Z,8.80
2019-04-20T02:54:52.981Z,8.60
2019-04-20T02:57:22.447Z,8.60
2019-04-20T03:01:45.648Z,8.60
2019-04-20T03:03:55.979Z,8.60
2019-04-20T03:06:26.712Z,8.50
2019-04-20T03:09:06.349Z,8.50
2019-04-20T03:11:37.811Z,8.50
2019-04-20T03:13:44.132Z,8.50
2019-04-20T03:16:03.546Z,8.50
2019-04-20T03:18:32.546Z,8.50
2019-04-20T03:20:53.636Z,8.40
2019-04-20T03:23:33.568Z,8.40
2019-04-20T03:25:55.908Z,8.40
2019-04-20T03:28:14.069Z,8.40
2019-04-20T03:35:52.853Z,8.30
2019-04-20T03:37:56.813Z,8.20
2019-04-20T03:40:10.085Z,8.20
2019-04-20T03:42:18.181Z,8.10
2019-04-20T03:44:48.362Z,8.00
2019-04-20T03:47:06.873Z,8.00
2019-04-20T03:49:48.237Z,7.90
2019-04-20T03:52:26.116Z,7.90
2019-04-20T03:54:55.259Z,7.80
2019-04-20T03:57:38.307Z,7.70
2019-04-20T03:59:55.120Z,7.70
2019-04-20T04:02:52.865Z,7.80
2019-04-20T04:05:04.243Z,7.80
2019-04-20T04:07:19.463Z,7.80
2019-04-20T04:09:47.039Z,7.70
2019-04-20T04:12:38.367Z,7.60
2019-04-20T04:14:57.928Z,7.70
2019-04-20T04:17:26.936Z,7.70
2019-04-20T04:19:51.190Z,7.60
2019-04-20T04:22:19.256Z,7.60
2019-04-20T04:24:36.735Z,7.60
2019-04-20T04:27:06.785Z,7.60
2019-04-20T04:29:39.646Z,7.70
2019-04-20T04:32:06.630Z,7.60
2019-04-20T04:34:17.490Z,7.60
2019-04-20T04:36:40.588Z,7.60
2019-04-20T04:39:11.328Z,7.60
2019-04-20T04:41:36.336Z,7.60
2019-04-20T04:43:54.796Z,7.60
2019-04-20T04:45:57.490Z,7.60
2019-04-20T04:48:25.228Z,7.60
2019-04-20T04:50:47.450Z,7.50
2019-04-20T04:53:12.065Z,7.50
2019-04-20T04:55:38.142Z,7.60
2019-04-20T04:57:52.105Z,7.70
2019-04-20T05:00:20.876Z,7.70
2019-04-20T05:02:45.080Z,7.80
2019-04-20T05:05:29.390Z,7.80
2019-04-20T05:07:46.439Z,7.90
2019-04-20T05:09:54.905Z,7.90
2019-04-20T05:12:20.346Z,8.00
2019-04-20T05:14:49.681Z,8.00
2019-04-20T05:17:20.608Z,8.20
2019-04-20T05:19:49.428Z,8.30
2019-04-20T05:22:17.822Z,8.60
2019-04-20T05:24:42.410Z,8.80
2019-04-20T05:27:17.724Z,9.10
2019-04-20T05:29:19.620Z,9.30
2019-04-20T05:31:46.222Z,9.40
2019-04-20T05:36:41.657Z,9.70
2019-04-20T05:39:14.466Z,9.80
2019-04-20T05:41:26.918Z,9.90
2019-04-20T05:43:54.491Z,9.90
2019-04-20T05:46:26.209Z,10.10
2019-04-20T05:48:50.519Z,10.30
2019-04-20T05:51:12.754Z,10.50
2019-04-20T05:53:37.038Z,10.70
2019-04-20T05:55:54.683Z,10.90
2019-04-20T05:58:22.269Z,11.00
2019-04-20T06:00:47.967Z,11.10
2019-04-20T06:03:05.820Z,11.30
2019-04-20T06:05:36.718Z,11.40
2019-04-20T06:07:54.783Z,11.50
2019-04-20T06:10:27.375Z,11.60
2019-04-20T06:12:40.002Z,11.70
2019-04-20T06:15:19.918Z,11.70
2019-04-20T06:17:55.384Z,11.90
2019-04-20T06:20:26.877Z,12.00
2019-04-20T06:22:49.540Z,12.10
2019-04-20T06:25:31.625Z,12.30
2019-04-20T06:27:41.117Z,12.50
2019-04-20T06:29:55.782Z,12.60
2019-04-20T06:32:27.149Z,12.70
2019-04-20T06:34:42.566Z,13.00
2019-04-20T06:37:07.156Z,13.10
2019-04-20T06:44:24.223Z,13.50
2019-04-20T06:46:52.477Z,13.60
2019-04-20T06:49:15.100Z,13.80
2019-04-20T06:51:34.645Z,14.00
2019-04-20T06:53:52.814Z,14.20
2019-04-20T06:56:35.796Z,14.40
2019-04-20T06:59:04.361Z,14.40
2019-04-20T07:01:17.103Z,14.50
2019-04-20T07:04:06.640Z,14.60
2019-04-20T07:06:32.155Z,14.60
2019-04-20T07:08:48.915Z,14.70
2019-04-20T07:10:58.347Z,14.80
2019-04-20T07:13:14.336Z,14.90
2019-04-20T07:15:47.437Z,15.00
2019-04-20T07:18:15.707Z,15.10
2019-04-20T07:20:55.588Z,15.30
2019-04-20T07:23:29.256Z,15.50
2019-04-20T07:25:40.759Z,15.50
2019-04-20T07:27:59.474Z,15.80
2019-04-20T07:30:19.379Z,15.80
2019-04-20T07:32:53.767Z,16.10
2019-04-20T07:35:09.778Z,16.30
2019-04-20T07:38:08.680Z,16.50
2019-04-20T07:40:01.586Z,16.60
2019-04-20T07:42:25.439Z,16.70
2019-04-20T07:44:48.717Z,16.80
2019-04-20T07:47:14.134Z,16.90
2019-04-20T07:49:30.139Z,17.00
2019-04-20T07:51:38.377Z,17.10
2019-04-20T07:54:23.199Z,17.20
2019-04-20T07:56:42.389Z,17.30
2019-04-20T07:58:50.036Z,17.40
2019-04-20T08:01:45.383Z,17.50
2019-04-20T08:04:14.189Z,17.60
2019-04-20T08:06:23.465Z,17.70
2019-04-20T08:08:55.698Z,17.90
2019-04-20T08:11:23.257Z,17.80
2019-04-20T08:16:14.599Z,17.90
2019-04-20T08:18:49.926Z,18.00
2019-04-20T08:20:58.532Z,17.90
2019-04-20T08:23:23.606Z,18.00
2019-04-20T08:25:37.301Z,17.90
2019-04-20T08:28:06.342Z,18.10
2019-04-20T08:30:56.038Z,18.30
2019-04-20T08:33:20.836Z,18.20
2019-04-20T08:35:53.946Z,18.30
2019-04-20T08:38:38.326Z,18.20
2019-04-20T08:40:36.170Z,18.30
2019-04-20T08:43:02.436Z,18.70
2019-04-20T08:45:23.918Z,18.80
2019-04-20T08:48:09.938Z,19.00
2019-04-20T08:50:27.162Z,19.20
2019-04-20T08:52:57.028Z,19.10
2019-04-20T08:55:04.998Z,19.40
2019-04-20T08:57:05.096Z,19.40
2019-04-20T08:59:26.415Z,19.40
2019-04-20T09:01:48.868Z,19.40
2019-04-20T09:04:16.272Z,19.60
2019-04-20T09:06:48.295Z,19.60
2019-04-20T09:09:20.669Z,19.80
2019-04-20T09:11:41.865Z,19.70
2019-04-20T09:13:49.586Z,19.80
2019-04-20T09:16:06.742Z,20.30
2019-04-20T09:18:39.042Z,20.40
2019-04-20T09:21:01.539Z,20.60
2019-04-20T09:23:36.782Z,20.60
2019-04-20T09:26:07.476Z,20.70
2019-04-20T09:28:23.823Z,20.90
2019-04-20T09:30:47.813Z,21.10
2019-04-20T09:33:38.715Z,21.20
2019-04-20T09:35:57.927Z,21.30
2019-04-20T09:38:24.289Z,21.50
2019-04-20T09:40:45.799Z,21.70
2019-04-20T09:42:54.762Z,21.60
2019-04-20T09:45:23.252Z,21.80
2019-04-20T09:47:45.899Z,22.00
2019-04-20T09:50:22.318Z,21.80
2019-04-20T09:52:46.400Z,21.90
2019-04-20T09:55:06.907Z,21.80
2019-04-20T09:57:35.064Z,21.90
2019-04-20T09:59:59.861Z,22.00
2019-04-20T10:02:10.304Z,22.30
2019-04-20T10:04:25.885Z,22.20
2019-04-20T10:06:47.666Z,22.40
2019-04-20T10:09:09.598Z,22.50
2019-04-20T10:11:31.965Z,22.60
2019-04-20T10:13:54.397Z,22.40
2019-04-20T10:16:15.737Z,22.40
2019-04-20T10:18:42.494Z,22.70
2019-04-20T10:21:00.224Z,22.90
2019-04-20T10:23:22.435Z,22.90
2019-04-20T10:25:44.690Z,22.90
2019-04-20T10:28:07.541Z,22.80
2019-04-20T10:30:28.930Z,23.10
2019-04-20T10:32:53.443Z,23.30
2019-04-20T10:35:15.662Z,23.60
2019-04-20T10:37:39.675Z,23.50
2019-04-20T10:40:01.064Z,23.60
2019-04-20T10:42:22.277Z,23.60
2019-04-20T10:44:43.491Z,23.90
2019-04-20T10:47:05.075Z,24.00
2019-04-20T10:49:27.148Z,23.90
2019-04-20T10:51:49.542Z,23.80
2019-04-20T10:54:12.090Z,24.00
2019-04-20T10:56:33.780Z,24.10
2019-04-20T10:58:55.851Z,23.80
2019-04-20T11:01:17.837Z,23.80
2019-04-20T11:03:40.616Z,24.20
2019-04-20T11:06:02.787Z,24.60
2019-04-20T11:08:24.540Z,24.70
2019-04-20T11:10:55.977Z,24.60
2019-04-20T11:13:09.598Z,24.70
2019-04-20T11:15:32.399Z,24.90
2019-04-20T11:17:53.829Z,25.00
2019-04-20T11:20:15.279Z,24.90
2019-04-20T11:22:37.953Z,25.00
2019-04-20T11:24:59.466Z,25.20
2019-04-20T11:27:22.459Z,25.20
2019-04-20T11:29:44.377Z,25.40
2019-04-20T11:32:07.176Z,25.40
2019-04-20T11:34:33.102Z,25.10
2019-04-20T11:36:52.936Z,25.00
2019-04-20T11:39:14.732Z,25.40
2019-04-20T11:41:37.714Z,25.50
2019-04-20T11:43:59.808Z,25.70
2019-04-20T11:46:21.115Z,25.70
2019-04-20T11:48:43.938Z,25.70
2019-04-20T11:51:05.559Z,25.80
2019-04-20T11:53:28.616Z,25.80
2019-04-20T11:55:50.033Z,25.90
2019-04-20T11:58:12.166Z,26.00
2019-04-20T12:00:53.986Z,26.10
2019-04-20T12:03:23.062Z,26.20
2019-04-20T12:05:41.525Z,26.10
2019-04-20T12:08:02.855Z,26.20
2019-04-20T12:10:26.038Z,25.90
2019-04-20T12:12:52.159Z,25.80
2019-04-20T12:15:14.704Z,26.00
2019-04-20T12:17:37.353Z,26.20
2019-04-20T12:19:59.940Z,26.50
2019-04-20T12:22:22.293Z,26.20
2019-04-20T12:24:44.545Z,25.90
2019-04-20T12:27:06.954Z,25.50
2019-04-20T12:29:29.953Z,25.80
2019-04-20T12:31:55.402Z,26.00
2019-04-20T12:34:14.456Z,26.10
2019-04-20T12:36:37.244Z,25.90
2019-04-20T12:38:59.186Z,25.70
2019-04-20T12:41:31.987Z,25.90
2019-04-20T12:43:43.735Z,26.10
2019-04-20T12:46:05.529Z,26.20
2019-04-20T12:48:27.124Z,25.60
2019-04-20T12:50:49.818Z,25.60
2019-04-20T12:53:12.720Z,25.60
2019-04-20T12:55:34.739Z,25.80
2019-04-20T12:57:56.681Z,26.10
2019-04-20T13:00:23.625Z,25.70
2019-04-20T13:02:45.375Z,25.70
2019-04-20T13:05:09.319Z,26.00
2019-04-20T13:07:38.177Z,25.90
2019-04-20T13:09:54.821Z,25.70
2019-04-20T13:12:21.908Z,25.80
2019-04-20T13:15:02.413Z,26.30
2019-04-20T13:17:24.375Z,26.50
2019-04-20T13:19:46.980Z,26.30
2019-04-20T13:22:08.437Z,26.40
2019-04-20T13:24:32.221Z,26.30
2019-04-20T13:26:53.133Z,26.40
2019-04-20T13:29:15.014Z,26.20
2019-04-20T13:31:37.971Z,26.20
2019-04-20T13:33:59.323Z,26.40
2019-04-20T13:36:21.913Z,26.10
2019-04-20T13:38:44.123Z,26.20
2019-04-20T13:41:06.231Z,26.40
2019-04-20T13:43:28.003Z,26.30
2019-04-20T13:45:51.223Z,26.50
2019-04-20T13:48:12.919Z,26.10
2019-04-20T13:50:34.322Z,26.30
2019-04-20T13:52:56.550Z,26.50
2019-04-20T13:55:19.303Z,26.40
2019-04-20T13:58:00.010Z,26.30
2019-04-20T14:00:36.734Z,26.20
2019-04-20T14:03:07.019Z,26.50
2019-04-20T14:05:30.760Z,26.40
2019-04-20T14:07:53.312Z,26.20
2019-04-20T14:10:15.520Z,26.30
2019-04-20T14:12:40.235Z,26.30
2019-04-20T14:15:01.314Z,26.20
2019-04-20T14:17:25.358Z,26.30
2019-04-20T14:19:47.463Z,26.50
2019-04-20T14:22:10.184Z,26.60
2019-04-20T14:24:33.053Z,26.60
2019-04-20T14:26:54.842Z,26.40
2019-04-20T14:29:16.984Z,26.30
2019-04-20T14:31:39.691Z,26.20
2019-04-20T14:34:02.593Z,26.50
2019-04-20T14:36:24.424Z,26.20
2019-04-20T14:38:48.125Z,26.30
2019-04-20T14:41:10.510Z,26.20
2019-04-20T14:43:33.547Z,26.20
2019-04-20T14:45:54.985Z,26.40
2019-04-20T14:48:16.414Z,26.50
2019-04-20T14:50:38.051Z,26.60
2019-04-20T14:52:59.806Z,26.50
2019-04-20T14:55:22.523Z,26.40
2019-04-20T14:57:45.404Z,26.10
2019-04-20T15:00:27.713Z,26.30
2019-04-20T15:02:50.000Z,26.30
2019-04-20T15:05:12.797Z,26.40
2019-04-20T15:07:34.389Z,26.20
2019-04-20T15:09:57.051Z,26.20
2019-04-20T15:12:19.042Z,26.60
2019-04-20T15:14:40.812Z,26.60
2019-04-20T15:17:02.532Z,26.40
2019-04-20T15:19:25.822Z,26.40
2019-04-20T15:21:49.492Z,26.40
2019-04-20T15:24:11.361Z,26.30
2019-04-20T15:26:32.653Z,26.30
2019-04-20T15:28:54.574Z,26.30
2019-04-20T15:31:16.762Z,26.30
2019-04-20T15:33:41.082Z,26.00
2019-04-20T15:36:04.149Z,26.20
2019-04-20T15:38:25.584Z,26.40
2019-04-20T15:40:47.027Z,26.40
2019-04-20T15:43:14.449Z,26.10
2019-04-20T15:45:31.678Z,25.80
2019-04-20T15:47:54.170Z,25.90
2019-04-20T15:50:15.993Z,25.80
2019-04-20T15:52:44.621Z,26.00
2019-04-20T15:55:01.708Z,26.00
2019-04-20T15:57:27.664Z,26.10
2019-04-20T15:59:48.633Z,26.00
2019-04-20T16:02:21.066Z,26.00
2019-04-20T16:04:54.383Z,25.90
2019-04-20T16:07:17.093Z,25.90
2019-04-20T16:09:38.419Z,25.70
2019-04-20T16:11:59.726Z,25.50
2019-04-20T16:14:21.622Z,25.70
2019-04-20T16:16:42.881Z,25.60
2019-04-20T16:19:15.508Z,25.50
2019-04-20T16:21:33.058Z,25.50
2019-04-20T16:23:54.825Z,25.40
2019-04-20T16:26:18.119Z,25.40
2019-04-20T16:28:41.694Z,25.40
2019-04-20T16:31:05.235Z,25.20
2019-04-20T16:33:26.343Z,25.10
2019-04-20T16:35:47.827Z,25.10
2019-04-20T16:38:10.720Z,25.00
2019-04-20T16:40:33.521Z,25.00
2019-04-20T16:42:54.820Z,25.00
2019-04-20T16:45:17.184Z,24.70
2019-04-20T16:47:39.809Z,24.50
2019-04-20T16:50:01.770Z,24.50
2019-04-20T16:52:23.127Z,24.60
2019-04-20T16:54:45.864Z,24.70
2019-04-20T16:57:10.626Z,24.70
2019-04-20T16:59:34.925Z,25.00
2019-04-20T17:01:53.977Z,25.20
2019-04-20T17:04:19.108Z,25.40
2019-04-20T17:06:42.333Z,25.40
2019-04-20T17:09:05.189Z,25.30
2019-04-20T17:11:29.882Z,25.20
2019-04-20T17:13:53.717Z,25.00
2019-04-20T17:16:15.577Z,24.70
2019-04-20T17:18:37.482Z,24.40
2019-04-20T17:21:04.418Z,24.20
2019-04-20T17:23:23.506Z,24.20
2019-04-20T17:25:46.014Z,24.10
2019-04-20T17:28:15.284Z,24.00
2019-04-20T17:30:39.722Z,23.80
2019-04-20T17:33:06.198Z,23.60
2019-04-20T17:35:39.403Z,23.50
2019-04-20T17:37:53.217Z,23.40
2019-04-20T17:40:36.806Z,23.30
2019-04-20T17:42:50.956Z,23.20
2019-04-20T17:45:07.938Z,23.10
2019-04-20T17:47:44.617Z,23.00
2019-04-20T17:50:03.771Z,22.90
2019-04-20T17:52:37.348Z,22.80
2019-04-20T17:54:39.819Z,22.70
2019-04-20T17:57:02.261Z,22.50
2019-04-20T17:59:24.293Z,22.40
2019-04-20T18:02:17.821Z,22.30
2019-04-20T18:05:00.933Z,22.20
2019-04-20T18:07:10.955Z,22.00
2019-04-20T18:09:44.567Z,21.90
2019-04-20T18:11:49.083Z,21.80
2019-04-20T18:14:24.188Z,21.70
2019-04-20T18:16:51.009Z,21.60
2019-04-20T18:19:07.754Z,21.50
2019-04-20T18:21:24.800Z,21.30
2019-04-20T18:23:49.637Z,21.20
2019-04-20T18:26:31.972Z,21.10
2019-04-20T18:28:58.835Z,21.00
2019-04-20T18:31:09.155Z,20.90
2019-04-20T18:33:35.214Z,20.80
2019-04-20T18:35:56.290Z,20.60
2019-04-20T18:38:18.476Z,20.50
2019-04-20T18:40:48.413Z,20.40
2019-04-20T18:43:08.223Z,20.30
2019-04-20T18:45:41.063Z,20.10
2019-04-20T18:48:11.858Z,20.10
2019-04-20T18:50:22.409Z,20.00
2019-04-20T18:52:38.223Z,19.90
2019-04-20T18:55:01.708Z,19.70
2019-04-20T18:57:27.245Z,19.60
2019-04-20T18:59:50.878Z,19.40
2019-04-20T19:02:18.541Z,19.30
2019-04-20T19:04:37.688Z,19.10
2019-04-20T19:06:59.561Z,19.00
2019-04-20T19:09:26.328Z,18.90
2019-04-20T19:11:50.850Z,18.60
2019-04-20T19:14:24.930Z,18.50
2019-04-20T19:17:00.374Z,18.40
2019-04-20T19:22:50.290Z,18.20
2019-04-20T19:25:18.448Z,18.00
2019-04-20T19:27:41.406Z,17.90
2019-04-20T19:30:11.691Z,17.80
2019-04-20T19:32:35.933Z,17.70
2019-04-20T19:34:55.317Z,17.60
2019-04-20T19:37:15.703Z,17.60
2019-04-20T19:39:47.162Z,17.50
2019-04-20T19:42:08.468Z,17.40
2019-04-20T19:44:27.237Z,17.30
2019-04-20T19:47:03.258Z,17.30
2019-04-20T19:49:19.624Z,17.20
2019-04-20T19:51:49.407Z,17.10
2019-04-20T19:54:13.123Z,17.00
2019-04-20T19:56:34.106Z,16.80
2019-04-20T19:58:53.342Z,16.70
2019-04-20T20:01:01.639Z,16.70
2019-04-20T20:03:24.093Z,16.50
2019-04-20T20:05:48.412Z,16.40
2019-04-20T20:08:17.120Z,16.30
2019-04-20T20:10:37.717Z,16.20
2019-04-20T20:13:00.573Z,16.10
2019-04-20T20:15:26.225Z,16.00
2019-04-20T20:18:02.283Z,15.90
2019-04-20T20:20:28.765Z,15.80
2019-04-20T20:22:36.010Z,15.80
2019-04-20T20:24:52.431Z,15.80
2019-04-20T20:27:26.902Z,15.70
2019-04-20T20:29:45.261Z,15.60
2019-04-20T20:32:11.707Z,15.50
2019-04-20T20:34:30.903Z,15.50
2019-04-20T20:36:54.639Z,15.30
2019-04-20T20:39:19.305Z,15.30
2019-04-20T20:41:49.074Z,15.20
2019-04-20T20:44:05.825Z,15.10
2019-04-20T20:46:30.631Z,15.00
2019-04-20T20:49:06.240Z,15.00
2019-04-20T20:51:28.558Z,14.90
2019-04-20T20:53:42.915Z,14.80
2019-04-20T20:56:06.609Z,14.80
2019-04-20T20:58:32.498Z,14.70
2019-04-20T21:00:53.315Z,14.60
2019-04-20T21:03:09.142Z,14.60
2019-04-20T21:05:27.858Z,14.50
2019-04-20T21:07:51.273Z,14.40
2019-04-20T21:10:15.396Z,14.40
2019-04-20T21:12:43.680Z,14.40
2019-04-20T21:15:06.853Z,14.30
2019-04-20T21:17:26.090Z,14.30
2019-04-20T21:20:04.759Z,14.20
2019-04-20T21:22:16.969Z,14.20
2019-04-20T21:24:37.964Z,14.10
2019-04-20T21:27:06.732Z,14.00
2019-04-20T21:29:32.815Z,14.00
2019-04-20T21:31:55.554Z,14.00
2019-04-20T21:34:16.152Z,13.90
2019-04-20T21:36:33.518Z,13.70
2019-04-20T21:38:56.169Z,13.70
2019-04-20T21:41:20.205Z,13.60
2019-04-20T21:43:42.644Z,13.60
2019-04-20T21:46:06.589Z,13.50
2019-04-20T21:48:44.102Z,13.40
2019-04-20T21:51:08.589Z,13.40
2019-04-20T21:53:18.458Z,13.20
2019-04-20T21:55:36.374Z,13.20
2019-04-20T21:58:00.445Z,13.10
2019-04-20T22:00:42.453Z,12.90
2019-04-20T22:03:06.340Z,12.80
2019-04-20T22:05:26.045Z,12.80
2019-04-20T22:07:48.431Z,12.80
2019-04-20T22:10:11.691Z,12.80
2019-04-20T22:12:38.440Z,12.80
2019-04-20T22:15:02.976Z,12.80
2019-04-20T22:17:25.930Z,12.80
2019-04-20T22:19:52.693Z,12.70
2019-04-20T22:22:18.493Z,12.70
2019-04-20T22:24:44.958Z,12.70
2019-04-20T22:27:03.109Z,12.60
2019-04-20T22:29:16.189Z,12.60
2019-04-20T22:31:38.220Z,12.50
2019-04-20T22:34:00.815Z,12.50
2019-04-20T22:36:26.037Z,12.40
2019-04-20T22:39:05.357Z,12.40
2019-04-20T22:41:30.152Z,12.40
2019-04-20T22:43:52.549Z,12.30
2019-04-20T22:46:17.509Z,12.30
2019-04-20T22:48:40.431Z,12.30
2019-04-20T22:51:19.615Z,12.20
2019-04-20T22:53:37.628Z,12.10
2019-04-20T22:56:11.018Z,12.10
2019-04-20T22:58:23.619Z,12.00
2019-04-20T23:00:43.612Z,11.90
2019-04-20T23:02:56.833Z,11.80
2019-04-20T23:05:18.583Z,11.70
2019-04-20T23:07:41.035Z,11.60
2019-04-20T23:10:05.457Z,11.50
2019-04-20T23:12:29.215Z,11.50
2019-04-20T23:14:52.333Z,11.40
2019-04-20T23:17:18.411Z,11.30
2019-04-20T23:19:46.596Z,11.30
2019-04-20T23:22:04.910Z,11.30
2019-04-20T23:24:23.727Z,11.20
2019-04-20T23:26:47.006Z,11.20
2019-04-20T23:29:09.248Z,11.20
2019-04-20T23:31:32.221Z,11.30
2019-04-20T23:33:54.066Z,11.30
2019-04-20T23:36:19.266Z,11.10
2019-04-20T23:38:38.972Z,11.20
2019-04-20T23:41:01.690Z,11.20
2019-04-20T23:43:30.457Z,11.20
2019-04-20T23:46:15.130Z,11.20
2019-04-20T23:48:40.952Z,11.20
2019-04-20T23:51:24.911Z,11.00
2019-04-20T23:53:37.177Z,10.90
2019-04-20T23:55:45.716Z,10.90
2019-04-20T23:58:10.745Z,10.70
